Time;durP1;ratioP1;P1;durP2;ratioP2;P2;SDS_P1;SDS_P2;PMS_P1;PMS_P2;Temp;Humidity;BMP_temperature;BMP_pressure;BME280_temperature;BME280_humidity;BME280_pressure;Samples;Min_cycle;Max_cycle;Signal;HPM_P1;HPM_P2
2023/04/07 00:00:03;;;;;;;7.18;5.55;;;;;;;;;;5094114;28;20469;-62
2023/04/07 00:02:29;;;;;;;8.45;5.55;;;;;;;;;;5077604;28;20016;-62
2023/04/07 00:04:57;;;;;;;8.48;6.10;;;;;;;;;;5089898;28;20018;-62
2023/04/07 00:07:22;;;;;;;8.63;5.47;;;;;;;;;;5098529;28;20123;-63
2023/04/07 00:09:48;;;;;;;6.85;5.63;;;;;;;;;;5098594;28;20099;-62
2023/04/07 00:12:14;;;;;;;8.88;6.03;;;;;;;;;;5098857;28;20028;-62
2023/04/07 00:14:39;;;;;;;6.15;5.40;;;;;;;;;;5095172;28;20489;-62
2023/04/07 00:17:05;;;;;;;7.93;5.78;;;;;;;;;;5095345;28;20020;-62
2023/04/07 00:19:32;;;;;;;9.45;5.50;;;;;;;;;;5095354;28;20056;-62
2023/04/07 00:21:58;;;;;;;7.82;5.47;;;;;;;;;;5095380;28;20503;-62
2023/04/07 00:24:24;;;;;;;6.95;6.00;;;;;;;;;;5082999;28;20032;-63
2023/04/07 00:26:49;;;;;;;9.52;5.85;;;;;;;;;;5073957;28;20033;-63
2023/04/07 00:29:15;;;;;;;7.25;5.70;;;;;;;;;;5073674;28;20028;-63
2023/04/07 00:31:40;;;;;;;8.40;5.53;;;;;;;;;;5073752;28;20112;-63
2023/04/07 00:34:06;;;;;;;8.20;5.22;;;;;;;;;;5073934;28;20021;-62
2023/04/07 00:36:32;;;;;;;7.38;4.95;;;;;;;;;;5073718;28;20028;-63
2023/04/07 00:38:58;;;;;;;6.35;5.20;;;;;;;;;;5072151;28;20103;-63
2023/04/07 00:41:23;;;;;;;6.95;5.28;;;;;;;;;;5073607;28;20077;-63
2023/04/07 00:43:52;;;;;;;7.85;5.50;;;;;;;;;;5073713;28;20465;-62
2023/04/07 00:46:21;;;;;;;6.80;5.55;;;;;;;;;;5072397;28;20380;-62
2023/04/07 00:48:47;;;;;;;5.93;5.10;;;;;;;;;;5073515;28;20036;-62
2023/04/07 00:51:13;;;;;;;6.85;5.40;;;;;;;;;;5073390;28;20369;-62
2023/04/07 00:53:39;;;;;;;7.03;5.35;;;;;;;;;;5073197;28;20040;-62
2023/04/07 00:56:05;;;;;;;7.13;5.50;;;;;;;;;;5073573;28;20017;-62
2023/04/07 00:58:30;;;;;;;6.68;5.28;;;;;;;;;;5073308;28;20032;-62
2023/04/07 01:01:08;;;;;;;6.50;5.40;;;;;;;;;;5073068;28;20029;-62
2023/04/07 01:03:40;;;;;;;7.10;5.65;;;;;;;;;;5073104;28;20375;-62
2023/04/07 01:06:07;;;;;;;5.95;5.20;;;;;;;;;;5073327;28;20025;-62
2023/04/07 01:08:46;;;;;;;6.97;5.70;;;;;;;;;;5072902;28;20029;-62
2023/04/07 01:11:45;;;;;;;7.32;5.20;;;;;;;;;;5072354;28;20472;-62
2023/04/07 01:14:13;;;;;;;9.48;5.70;;;;;;;;;;5072868;28;20117;-62
2023/04/07 01:16:47;;;;;;;6.90;5.40;;;;;;;;;;5072097;28;20381;-62
2023/04/07 01:19:36;;;;;;;6.50;5.57;;;;;;;;;;5071877;28;20040;-62
2023/04/07 01:22:19;;;;;;;6.85;5.32;;;;;;;;;;5072747;28;20108;-63
2023/04/07 01:24:45;;;;;;;6.07;5.07;;;;;;;;;;5074005;28;20028;-62
2023/04/07 01:27:23;;;;;;;6.43;5.28;;;;;;;;;;5074110;28;20154;-64
2023/04/07 01:29:51;;;;;;;6.82;5.25;;;;;;;;;;5074133;28;20080;-63
2023/04/07 01:32:19;;;;;;;7.53;5.40;;;;;;;;;;5073649;28;20461;-64
2023/04/07 01:34:48;;;;;;;5.85;5.20;;;;;;;;;;5072456;28;20034;-63
2023/04/07 01:37:15;;;;;;;5.93;5.15;;;;;;;;;;5073827;28;20099;-64
2023/04/07 01:39:41;;;;;;;6.70;5.25;;;;;;;;;;5073578;28;20056;-63
2023/04/07 01:42:07;;;;;;;5.85;5.10;;;;;;;;;;5071282;28;20044;-63
2023/04/07 01:44:34;;;;;;;6.50;5.32;;;;;;;;;;5064844;28;20032;-63
2023/04/07 01:47:01;;;;;;;7.63;5.15;;;;;;;;;;5063988;28;20103;-63
2023/04/07 01:49:28;;;;;;;7.22;5.50;;;;;;;;;;5066543;28;20074;-63
2023/04/07 01:51:55;;;;;;;7.15;5.43;;;;;;;;;;5071173;28;20488;-63
2023/04/07 01:54:22;;;;;;;7.22;4.97;;;;;;;;;;5071094;28;20119;-63
2023/04/07 01:56:50;;;;;;;6.97;5.50;;;;;;;;;;5072470;28;20019;-63
2023/04/07 01:59:16;;;;;;;5.97;5.03;;;;;;;;;;5072285;28;20082;-64
2023/04/07 02:01:41;;;;;;;6.20;5.28;;;;;;;;;;5071998;28;20573;-64
2023/04/07 02:04:16;;;;;;;7.32;5.45;;;;;;;;;;5070904;28;20032;-63
2023/04/07 02:06:49;;;;;;;6.68;5.10;;;;;;;;;;5072059;28;20074;-64
2023/04/07 02:09:15;;;;;;;7.18;4.97;;;;;;;;;;5071389;28;20472;-64
2023/04/07 02:11:44;;;;;;;6.45;5.07;;;;;;;;;;5072542;28;20050;-63
2023/04/07 02:14:11;;;;;;;6.22;5.25;;;;;;;;;;5071451;28;20496;-64
2023/04/07 02:16:37;;;;;;;7.43;4.93;;;;;;;;;;5073098;28;20078;-63
2023/04/07 02:19:03;;;;;;;7.93;5.13;;;;;;;;;;5072809;28;20028;-63
2023/04/07 02:21:32;;;;;;;8.07;5.18;;;;;;;;;;5073076;28;20052;-63
2023/04/07 02:24:00;;;;;;;6.40;5.30;;;;;;;;;;5072756;28;20078;-63
2023/04/07 02:26:26;;;;;;;5.50;4.95;;;;;;;;;;5072724;28;20024;-63
2023/04/07 02:28:51;;;;;;;8.57;5.35;;;;;;;;;;5072648;28;20032;-63
2023/04/07 02:31:17;;;;;;;8.25;5.18;;;;;;;;;;5072604;28;20104;-63
2023/04/07 02:33:42;;;;;;;5.35;4.55;;;;;;;;;;5072600;28;20068;-63
2023/04/07 02:36:08;;;;;;;7.15;5.40;;;;;;;;;;5071449;28;20040;-63
2023/04/07 02:38:33;;;;;;;5.60;4.97;;;;;;;;;;5072382;28;20028;-63
2023/04/07 02:40:59;;;;;;;6.97;4.90;;;;;;;;;;5072520;28;20021;-64
2023/04/07 02:43:25;;;;;;;6.47;5.03;;;;;;;;;;5072533;28;20032;-64
2023/04/07 02:45:51;;;;;;;6.43;5.00;;;;;;;;;;5072446;28;20039;-63
2023/04/07 02:48:16;;;;;;;7.03;4.95;;;;;;;;;;5072703;28;20016;-63
2023/04/07 02:50:42;;;;;;;6.97;5.20;;;;;;;;;;5072424;28;20517;-63
2023/04/07 02:53:07;;;;;;;6.80;5.15;;;;;;;;;;5072311;28;20400;-64
2023/04/07 02:55:33;;;;;;;6.18;5.20;;;;;;;;;;5072327;28;20027;-63
2023/04/07 02:57:58;;;;;;;6.68;5.13;;;;;;;;;;5072414;28;20123;-63
2023/04/07 03:00:24;;;;;;;6.57;4.85;;;;;;;;;;5072370;28;20036;-63
2023/04/07 03:02:50;;;;;;;6.60;5.22;;;;;;;;;;5072326;28;20032;-63
2023/04/07 03:05:16;;;;;;;6.20;5.05;;;;;;;;;;5072306;28;20032;-63
2023/04/07 03:07:41;;;;;;;5.80;5.20;;;;;;;;;;5072188;28;20040;-63
2023/04/07 03:10:07;;;;;;;6.60;5.50;;;;;;;;;;5072285;28;20115;-63
2023/04/07 03:12:33;;;;;;;7.93;5.28;;;;;;;;;;5072561;28;20112;-64
2023/04/07 03:14:58;;;;;;;6.55;4.93;;;;;;;;;;5072516;28;20032;-63
2023/04/07 03:17:24;;;;;;;6.75;5.13;;;;;;;;;;5072289;28;20021;-63
2023/04/07 03:19:50;;;;;;;5.30;4.78;;;;;;;;;;5072264;28;20032;-63
2023/04/07 03:22:16;;;;;;;5.28;4.72;;;;;;;;;;5072252;28;20028;-63
2023/04/07 03:24:41;;;;;;;7.25;5.38;;;;;;;;;;5072438;28;20032;-63
2023/04/07 03:27:07;;;;;;;7.20;5.10;;;;;;;;;;5072137;28;20388;-63
2023/04/07 03:29:33;;;;;;;5.47;4.78;;;;;;;;;;5071966;28;20434;-63
2023/04/07 03:31:58;;;;;;;7.53;4.93;;;;;;;;;;5072157;28;20402;-62
2023/04/07 03:34:24;;;;;;;6.00;4.60;;;;;;;;;;5071973;28;20490;-63
2023/04/07 03:36:49;;;;;;;5.35;4.60;;;;;;;;;;5071969;28;20028;-63
2023/04/07 03:39:15;;;;;;;6.28;4.97;;;;;;;;;;5072025;28;20016;-62
2023/04/07 03:41:40;;;;;;;7.03;5.20;;;;;;;;;;5072190;28;20099;-63
2023/04/07 03:44:06;;;;;;;7.30;5.10;;;;;;;;;;5071842;28;20032;-63
2023/04/07 03:46:32;;;;;;;5.88;4.82;;;;;;;;;;5071931;28;20020;-63
2023/04/07 03:48:57;;;;;;;6.78;4.97;;;;;;;;;;5072619;28;20037;-62
2023/04/07 03:51:23;;;;;;;5.97;5.10;;;;;;;;;;5075577;28;20085;-64
2023/04/07 03:53:48;;;;;;;6.00;4.80;;;;;;;;;;5075579;28;20037;-63
2023/04/07 03:56:14;;;;;;;5.70;4.68;;;;;;;;;;5075511;28;20024;-62
2023/04/07 03:58:41;;;;;;;5.70;4.97;;;;;;;;;;5075798;28;20070;-63
2023/04/07 04:01:07;;;;;;;5.90;5.00;;;;;;;;;;5075379;28;20027;-63
2023/04/07 04:03:33;;;;;;;5.72;4.78;;;;;;;;;;5075396;28;20131;-63
2023/04/07 04:05:59;;;;;;;7.25;5.00;;;;;;;;;;5075661;28;20047;-63
2023/04/07 04:08:25;;;;;;;5.75;4.80;;;;;;;;;;5075247;28;20535;-63
2023/04/07 04:10:51;;;;;;;7.18;5.63;;;;;;;;;;5075553;28;20021;-63
2023/04/07 04:13:16;;;;;;;6.30;5.18;;;;;;;;;;5075236;28;20499;-63
2023/04/07 04:15:42;;;;;;;6.72;4.82;;;;;;;;;;5075463;28;20111;-63
2023/04/07 04:18:08;;;;;;;7.05;5.22;;;;;;;;;;5075221;28;20484;-63
2023/04/07 04:20:33;;;;;;;6.30;4.75;;;;;;;;;;5074938;28;20016;-63
2023/04/07 04:22:59;;;;;;;7.05;5.15;;;;;;;;;;5075289;28;20025;-63
2023/04/07 04:25:25;;;;;;;5.78;4.78;;;;;;;;;;5074969;28;20473;-63
2023/04/07 04:27:50;;;;;;;5.75;4.53;;;;;;;;;;5074778;28;20472;-63
2023/04/07 04:30:16;;;;;;;5.00;4.47;;;;;;;;;;5073584;28;20067;-62
2023/04/07 04:32:41;;;;;;;5.20;4.57;;;;;;;;;;5074736;28;20020;-63
2023/04/07 04:35:07;;;;;;;5.63;4.80;;;;;;;;;;5074988;28;20032;-63
2023/04/07 04:37:33;;;;;;;6.13;4.93;;;;;;;;;;5074620;28;20035;-63
2023/04/07 04:39:59;;;;;;;6.25;5.10;;;;;;;;;;5073329;28;20480;-63
2023/04/07 04:42:26;;;;;;;5.85;4.50;;;;;;;;;;5074744;28;20021;-63
2023/04/07 04:44:52;;;;;;;6.80;4.97;;;;;;;;;;5074530;28;20412;-63
2023/04/07 04:47:18;;;;;;;7.60;4.85;;;;;;;;;;5074772;28;20020;-62
2023/04/07 04:49:44;;;;;;;5.53;4.60;;;;;;;;;;5074447;28;20032;-63
2023/04/07 04:52:10;;;;;;;5.22;4.53;;;;;;;;;;5074539;28;20059;-63
2023/04/07 04:54:37;;;;;;;6.95;4.90;;;;;;;;;;5074287;28;20052;-62
2023/04/07 04:57:02;;;;;;;6.22;5.20;;;;;;;;;;5074216;28;20079;-62
2023/04/07 04:59:28;;;;;;;5.43;4.55;;;;;;;;;;5073866;28;20048;-63
2023/04/07 05:01:53;;;;;;;5.72;5.00;;;;;;;;;;5074274;28;20506;-63
2023/04/07 05:04:19;;;;;;;5.82;5.00;;;;;;;;;;5074256;28;20056;-63
2023/04/07 05:06:45;;;;;;;5.60;4.50;;;;;;;;;;5074181;28;20032;-62
2023/04/07 05:09:10;;;;;;;5.18;4.68;;;;;;;;;;5074021;28;20029;-63
2023/04/07 05:11:36;;;;;;;6.68;4.68;;;;;;;;;;5074155;28;20025;-62
2023/04/07 05:14:01;;;;;;;6.93;5.10;;;;;;;;;;5074040;28;20029;-63
2023/04/07 05:16:27;;;;;;;5.28;4.75;;;;;;;;;;5073964;28;20069;-63
2023/04/07 05:18:52;;;;;;;6.07;5.00;;;;;;;;;;5073964;28;20043;-63
2023/04/07 05:21:21;;;;;;;6.18;4.82;;;;;;;;;;5073882;28;20024;-62
2023/04/07 05:23:46;;;;;;;6.57;4.85;;;;;;;;;;5073818;28;20032;-62
2023/04/07 05:26:12;;;;;;;6.18;4.78;;;;;;;;;;5073784;28;20025;-63
2023/04/07 05:28:38;;;;;;;5.45;4.50;;;;;;;;;;5072405;28;20029;-63
2023/04/07 05:31:03;;;;;;;5.78;4.82;;;;;;;;;;5073698;28;20539;-63
2023/04/07 05:33:29;;;;;;;6.65;5.13;;;;;;;;;;5073647;28;20048;-63
2023/04/07 05:35:55;;;;;;;6.47;5.05;;;;;;;;;;5073869;28;20048;-62
2023/04/07 05:38:20;;;;;;;6.43;4.80;;;;;;;;;;5073560;28;20503;-62
2023/04/07 05:40:46;;;;;;;6.13;4.93;;;;;;;;;;5073454;28;20063;-63
2023/04/07 05:43:11;;;;;;;8.40;4.93;;;;;;;;;;5073797;28;20032;-62
2023/04/07 05:45:37;;;;;;;6.22;4.60;;;;;;;;;;5073408;28;20028;-62
2023/04/07 05:48:03;;;;;;;5.57;4.85;;;;;;;;;;5073274;28;20044;-62
2023/04/07 05:50:28;;;;;;;5.20;4.70;;;;;;;;;;5073315;28;20032;-62
2023/04/07 05:52:54;;;;;;;5.22;4.70;;;;;;;;;;5072937;28;20044;-63
2023/04/07 05:55:20;;;;;;;5.50;4.68;;;;;;;;;;5073219;28;20035;-63
2023/04/07 05:57:46;;;;;;;6.35;4.85;;;;;;;;;;5073140;28;20051;-63
2023/04/07 06:00:15;;;;;;;5.30;4.80;;;;;;;;;;5073138;28;20371;-62
2023/04/07 06:02:40;;;;;;;5.68;4.97;;;;;;;;;;5073088;28;20024;-63
2023/04/07 06:05:06;;;;;;;6.40;4.85;;;;;;;;;;5073043;28;20029;-63
2023/04/07 06:07:32;;;;;;;5.90;4.82;;;;;;;;;;5072861;28;20077;-63
2023/04/07 06:09:57;;;;;;;5.95;5.05;;;;;;;;;;5072940;28;20032;-63
2023/04/07 06:12:23;;;;;;;6.20;4.97;;;;;;;;;;5070797;28;20024;-63
2023/04/07 06:14:54;;;;;;;4.93;4.43;;;;;;;;;;5072877;28;20540;-62
2023/04/07 06:17:19;;;;;;;5.18;4.68;;;;;;;;;;5072802;28;20021;-64
2023/04/07 06:19:45;;;;;;;5.90;4.60;;;;;;;;;;5072733;28;20026;-62
2023/04/07 06:22:11;;;;;;;7.28;4.80;;;;;;;;;;5072705;28;20025;-63
2023/04/07 06:24:36;;;;;;;5.50;4.80;;;;;;;;;;5072971;28;20089;-63
2023/04/07 06:27:02;;;;;;;5.10;4.50;;;;;;;;;;5072702;28;20661;-62
2023/04/07 06:29:29;;;;;;;6.07;4.88;;;;;;;;;;5072651;28;20495;-62
2023/04/07 06:31:55;;;;;;;7.07;5.22;;;;;;;;;;5072596;28;20593;-62
2023/04/07 06:34:20;;;;;;;6.00;4.90;;;;;;;;;;5072484;28;20027;-62
2023/04/07 06:36:46;;;;;;;5.82;4.90;;;;;;;;;;5072827;28;20034;-63
2023/04/07 06:39:12;;;;;;;5.32;4.60;;;;;;;;;;5072570;28;20024;-63
2023/04/07 06:41:37;;;;;;;5.60;5.05;;;;;;;;;;5072529;28;20028;-63
2023/04/07 06:44:04;;;;;;;5.60;5.00;;;;;;;;;;5072762;28;20088;-62
2023/04/07 06:46:29;;;;;;;5.65;4.55;;;;;;;;;;5072642;28;20028;-62
2023/04/07 06:48:55;;;;;;;5.30;4.80;;;;;;;;;;5072515;28;20357;-62
2023/04/07 06:51:21;;;;;;;5.13;4.20;;;;;;;;;;5072459;28;20028;-62
2023/04/07 06:53:47;;;;;;;5.82;4.80;;;;;;;;;;5072199;28;20044;-62
2023/04/07 06:56:13;;;;;;;5.80;4.75;;;;;;;;;;5072345;28;20388;-63
2023/04/07 06:58:39;;;;;;;6.32;4.85;;;;;;;;;;5072409;28;20043;-62
2023/04/07 07:01:05;;;;;;;5.65;4.70;;;;;;;;;;5072264;28;20028;-62
2023/04/07 07:03:31;;;;;;;5.80;4.80;;;;;;;;;;5072343;28;20033;-62
2023/04/07 07:05:58;;;;;;;5.25;4.70;;;;;;;;;;5072206;28;20028;-62
2023/04/07 07:08:28;;;;;;;6.18;4.95;;;;;;;;;;5072187;28;20028;-61
2023/04/07 07:10:54;;;;;;;5.68;4.97;;;;;;;;;;5071112;28;20063;-62
2023/04/07 07:13:23;;;;;;;5.53;4.90;;;;;;;;;;5070849;28;20037;-62
2023/04/07 07:15:49;;;;;;;5.63;4.85;;;;;;;;;;5072208;28;20032;-62
2023/04/07 07:18:16;;;;;;;5.63;4.63;;;;;;;;;;5072056;28;20035;-63
2023/04/07 07:20:41;;;;;;;5.28;4.38;;;;;;;;;;5072349;28;20372;-62
2023/04/07 07:23:07;;;;;;;6.57;5.13;;;;;;;;;;5073405;28;20028;-63
2023/04/07 07:25:32;;;;;;;5.50;4.90;;;;;;;;;;5076366;28;20028;-62
2023/04/07 07:27:58;;;;;;;5.90;4.90;;;;;;;;;;5075122;28;20433;-62
2023/04/07 07:30:24;;;;;;;5.38;4.63;;;;;;;;;;5075976;28;20056;-62
2023/04/07 07:32:52;;;;;;;5.57;4.57;;;;;;;;;;5075917;28;20150;-62
2023/04/07 07:35:18;;;;;;;6.18;4.80;;;;;;;;;;5075848;28;20017;-63
2023/04/07 07:37:44;;;;;;;5.60;4.93;;;;;;;;;;5075794;28;20033;-63
2023/04/07 07:40:10;;;;;;;6.45;4.95;;;;;;;;;;5075733;28;20036;-63
2023/04/07 07:42:35;;;;;;;6.22;4.90;;;;;;;;;;5075765;28;20024;-63
2023/04/07 07:45:01;;;;;;;6.25;4.40;;;;;;;;;;5074340;28;20385;-63
2023/04/07 07:47:27;;;;;;;7.13;4.72;;;;;;;;;;5074557;28;20043;-63
2023/04/07 07:49:52;;;;;;;5.93;4.68;;;;;;;;;;5075608;28;20399;-63
2023/04/07 07:52:19;;;;;;;5.32;4.70;;;;;;;;;;5075536;28;20044;-63
2023/04/07 07:54:45;;;;;;;5.30;4.80;;;;;;;;;;5075815;28;20020;-63
2023/04/07 07:57:11;;;;;;;6.00;4.78;;;;;;;;;;5075508;28;20115;-63
2023/04/07 07:59:37;;;;;;;5.30;4.80;;;;;;;;;;5075547;28;20103;-64
2023/04/07 08:02:04;;;;;;;5.50;4.72;;;;;;;;;;5075387;28;20077;-64
2023/04/07 08:04:29;;;;;;;6.68;5.07;;;;;;;;;;5075576;28;20062;-63
2023/04/07 08:06:55;;;;;;;6.65;4.72;;;;;;;;;;5075165;28;20032;-63
2023/04/07 08:09:21;;;;;;;6.03;5.00;;;;;;;;;;5075150;28;20043;-63
2023/04/07 08:11:50;;;;;;;5.57;4.85;;;;;;;;;;5074969;28;20036;-63
2023/04/07 08:14:16;;;;;;;5.15;4.22;;;;;;;;;;5074996;28;20426;-63
2023/04/07 08:16:42;;;;;;;5.43;4.93;;;;;;;;;;5075029;28;20024;-63
2023/04/07 08:19:08;;;;;;;6.03;4.72;;;;;;;;;;5073740;28;20039;-63
2023/04/07 08:21:34;;;;;;;5.22;4.60;;;;;;;;;;5075185;28;20032;-63
2023/04/07 08:24:00;;;;;;;5.43;4.65;;;;;;;;;;5075033;28;20079;-64
2023/04/07 08:26:26;;;;;;;5.93;5.00;;;;;;;;;;5074801;28;20021;-64
2023/04/07 08:28:52;;;;;;;5.72;4.78;;;;;;;;;;5075033;28;20051;-63
2023/04/07 08:31:18;;;;;;;5.40;4.78;;;;;;;;;;5074725;28;20022;-63
2023/04/07 08:33:44;;;;;;;6.65;5.05;;;;;;;;;;5074721;28;20035;-63
2023/04/07 08:36:10;;;;;;;5.80;5.20;;;;;;;;;;5074169;28;20020;-63
2023/04/07 08:38:36;;;;;;;6.07;4.88;;;;;;;;;;5074813;28;20519;-64
2023/04/07 08:41:12;;;;;;;6.10;5.18;;;;;;;;;;5074997;28;20024;-64
2023/04/07 08:43:38;;;;;;;6.45;4.93;;;;;;;;;;5074620;28;20108;-63
2023/04/07 08:46:05;;;;;;;5.43;4.82;;;;;;;;;;5074841;28;20025;-64
2023/04/07 08:48:34;;;;;;;5.25;4.75;;;;;;;;;;5073981;28;20052;-63
2023/04/07 08:51:08;;;;;;;6.45;4.82;;;;;;;;;;5073522;28;20388;-64
2023/04/07 08:53:50;;;;;;;6.50;5.03;;;;;;;;;;5073241;28;20062;-63
2023/04/07 08:56:22;;;;;;;6.25;5.30;;;;;;;;;;5073914;28;20418;-64
2023/04/07 08:58:48;;;;;;;5.10;4.60;;;;;;;;;;5072798;28;20028;-64
2023/04/07 09:01:16;;;;;;;5.63;4.78;;;;;;;;;;5073664;28;20376;-64
2023/04/07 09:03:44;;;;;;;5.50;4.88;;;;;;;;;;5073690;28;20036;-64
2023/04/07 09:06:10;;;;;;;5.32;4.78;;;;;;;;;;5074502;28;20020;-64
2023/04/07 09:08:36;;;;;;;5.20;4.80;;;;;;;;;;5074245;28;20029;-63
2023/04/07 09:11:02;;;;;;;5.60;5.00;;;;;;;;;;5074201;28;20036;-64
2023/04/07 09:13:28;;;;;;;5.22;4.72;;;;;;;;;;5074036;28;20028;-64
2023/04/07 09:15:53;;;;;;;5.47;4.82;;;;;;;;;;5074072;28;20107;-64
2023/04/07 09:18:19;;;;;;;5.53;4.95;;;;;;;;;;5073992;28;20103;-64
2023/04/07 09:20:55;;;;;;;5.90;5.30;;;;;;;;;;5074254;28;20078;-64
2023/04/07 09:23:41;;;;;;;6.38;5.32;;;;;;;;;;5072671;28;20027;-64
2023/04/07 09:26:27;;;;;;;5.28;4.78;;;;;;;;;;5073815;28;20024;-64
2023/04/07 09:29:06;;;;;;;5.95;5.15;;;;;;;;;;5073726;28;20028;-64
2023/04/07 09:31:53;;;;;;;5.75;4.70;;;;;;;;;;5073026;28;20021;-64
2023/04/07 09:34:37;;;;;;;6.20;4.93;;;;;;;;;;5074019;28;20035;-63
2023/04/07 09:37:05;;;;;;;5.82;5.18;;;;;;;;;;5073556;28;20056;-64
2023/04/07 09:39:31;;;;;;;6.68;5.05;;;;;;;;;;5073801;28;20058;-65
2023/04/07 09:41:57;;;;;;;6.78;5.20;;;;;;;;;;5073528;28;20017;-63
2023/04/07 09:44:24;;;;;;;5.68;4.95;;;;;;;;;;5073386;28;20032;-64
2023/04/07 09:46:58;;;;;;;5.72;4.97;;;;;;;;;;5073623;28;20540;-64
2023/04/07 09:49:24;;;;;;;5.65;5.07;;;;;;;;;;5073454;28;20063;-64
2023/04/07 09:51:54;;;;;;;5.53;4.93;;;;;;;;;;5071846;28;20063;-64
2023/04/07 09:54:40;;;;;;;5.50;5.00;;;;;;;;;;5073594;28;20024;-64
2023/04/07 09:57:08;;;;;;;4.75;4.32;;;;;;;;;;5073332;28;20029;-63
2023/04/07 09:59:35;;;;;;;5.03;4.53;;;;;;;;;;5073126;28;20028;-63
2023/04/07 10:02:01;;;;;;;6.50;4.90;;;;;;;;;;5073556;28;20446;-63
2023/04/07 10:04:30;;;;;;;5.35;4.72;;;;;;;;;;5073063;28;20081;-63
2023/04/07 10:06:58;;;;;;;5.75;4.82;;;;;;;;;;5073486;28;20024;-64
2023/04/07 10:09:26;;;;;;;5.65;4.72;;;;;;;;;;5073084;28;20361;-63
2023/04/07 10:11:53;;;;;;;5.80;4.60;;;;;;;;;;5072952;28;20024;-63
2023/04/07 10:14:22;;;;;;;6.03;4.57;;;;;;;;;;5073242;28;20422;-63
2023/04/07 10:16:48;;;;;;;5.82;4.63;;;;;;;;;;5072922;28;20039;-63
2023/04/07 10:19:15;;;;;;;5.53;4.55;;;;;;;;;;5072819;28;20107;-63
2023/04/07 10:21:42;;;;;;;6.03;4.95;;;;;;;;;;5072858;28;20025;-63
2023/04/07 10:24:26;;;;;;;5.85;4.95;;;;;;;;;;5072812;28;20028;-64
2023/04/07 10:27:07;;;;;;;6.18;4.72;;;;;;;;;;5073147;28;20081;-63
2023/04/07 10:29:39;;;;;;;5.35;4.85;;;;;;;;;;5072764;28;20024;-63
2023/04/07 10:32:05;;;;;;;5.72;4.70;;;;;;;;;;5072746;28;20036;-62
2023/04/07 10:34:49;;;;;;;5.03;4.53;;;;;;;;;;5072822;28;20020;-62
2023/04/07 10:37:19;;;;;;;5.15;4.65;;;;;;;;;;5072685;28;20506;-62
2023/04/07 10:39:45;;;;;;;5.80;4.82;;;;;;;;;;5072590;28;20106;-62
2023/04/07 10:42:38;;;;;;;5.18;4.68;;;;;;;;;;5072877;28;20427;-63
2023/04/07 10:45:05;;;;;;;5.50;4.63;;;;;;;;;;5072864;28;20375;-63
2023/04/07 10:47:31;;;;;;;5.35;4.85;;;;;;;;;;5072625;28;20012;-62
2023/04/07 10:50:29;;;;;;;5.07;4.50;;;;;;;;;;5072408;28;20527;-63
2023/04/07 10:53:07;;;;;;;5.20;4.70;;;;;;;;;;5071220;28;20051;-62
2023/04/07 10:55:45;;;;;;;6.15;5.13;;;;;;;;;;5070302;28;20070;-63
2023/04/07 10:58:15;;;;;;;5.32;4.63;;;;;;;;;;5068353;28;20531;-62
2023/04/07 11:00:41;;;;;;;5.35;4.85;;;;;;;;;;5069984;28;20475;-62
2023/04/07 11:03:12;;;;;;;7.43;4.90;;;;;;;;;;5070395;28;20027;-63
2023/04/07 11:05:40;;;;;;;5.10;4.60;;;;;;;;;;5071024;28;20103;-64
2023/04/07 11:08:06;;;;;;;5.22;4.72;;;;;;;;;;5069863;28;20059;-63
2023/04/07 11:10:33;;;;;;;5.57;5.00;;;;;;;;;;5069893;28;20024;-63
2023/04/07 11:13:03;;;;;;;5.00;4.50;;;;;;;;;;5071274;28;20396;-63
2023/04/07 11:15:30;;;;;;;5.22;4.72;;;;;;;;;;5070413;28;20102;-63
2023/04/07 11:18:22;;;;;;;5.35;4.50;;;;;;;;;;5070521;28;20548;-64
2023/04/07 11:20:53;;;;;;;5.95;5.32;;;;;;;;;;5066800;28;20033;-64
2023/04/07 11:23:20;;;;;;;4.50;4.10;;;;;;;;;;5070236;28;20147;-63
2023/04/07 11:25:47;;;;;;;5.45;4.88;;;;;;;;;;5070966;28;20032;-63
2023/04/07 11:28:13;;;;;;;4.95;4.55;;;;;;;;;;5069944;28;20373;-63
2023/04/07 11:30:48;;;;;;;5.15;4.65;;;;;;;;;;5068937;28;20024;-62
2023/04/07 11:33:19;;;;;;;5.32;4.72;;;;;;;;;;5066601;28;20097;-62
2023/04/07 11:35:54;;;;;;;5.30;4.68;;;;;;;;;;5066202;28;20036;-63
2023/04/07 11:38:21;;;;;;;5.25;4.55;;;;;;;;;;5066712;28;20376;-62
2023/04/07 11:40:47;;;;;;;5.15;4.65;;;;;;;;;;5067494;28;20024;-62
2023/04/07 11:43:18;;;;;;;6.60;5.25;;;;;;;;;;5067832;28;20129;-64
2023/04/07 11:45:44;;;;;;;5.63;4.57;;;;;;;;;;5066620;28;20043;-64
2023/04/07 11:48:30;;;;;;;5.00;4.50;;;;;;;;;;5067587;28;20115;-63
2023/04/07 11:50:55;;;;;;;5.80;4.93;;;;;;;;;;5067175;28;20028;-63
2023/04/07 11:53:36;;;;;;;5.30;4.53;;;;;;;;;;5067207;28;20047;-63
2023/04/07 11:56:04;;;;;;;5.38;4.85;;;;;;;;;;5067166;28;20056;-64
2023/04/07 11:58:29;;;;;;;5.18;4.68;;;;;;;;;;5067570;28;20029;-63
2023/04/07 12:00:57;;;;;;;6.78;4.90;;;;;;;;;;5065341;28;20024;-63
2023/04/07 12:03:23;;;;;;;5.05;4.55;;;;;;;;;;5067105;28;20111;-63
2023/04/07 12:05:49;;;;;;;5.25;4.75;;;;;;;;;;5067986;28;20488;-64
2023/04/07 12:08:15;;;;;;;5.10;4.50;;;;;;;;;;5069286;28;20043;-64
2023/04/07 12:10:41;;;;;;;5.47;4.97;;;;;;;;;;5072165;28;20021;-64
2023/04/07 12:13:08;;;;;;;4.90;4.47;;;;;;;;;;5075284;28;20024;-62
2023/04/07 12:15:36;;;;;;;5.72;5.10;;;;;;;;;;5079650;28;20028;-62
2023/04/07 12:18:02;;;;;;;5.25;4.43;;;;;;;;;;5093802;28;20456;-62
2023/04/07 12:20:28;;;;;;;5.65;4.85;;;;;;;;;;5095641;28;20069;-64
2023/04/07 12:22:53;;;;;;;5.35;4.63;;;;;;;;;;5095419;28;20099;-63
2023/04/07 12:25:19;;;;;;;5.63;4.97;;;;;;;;;;5090346;28;20067;-63
2023/04/07 12:27:45;;;;;;;5.30;4.78;;;;;;;;;;5075348;28;20024;-62
2023/04/07 12:30:12;;;;;;;5.07;4.57;;;;;;;;;;5074941;28;20498;-63
2023/04/07 12:32:38;;;;;;;5.70;5.10;;;;;;;;;;5075177;28;20374;-62
2023/04/07 12:35:05;;;;;;;5.35;4.60;;;;;;;;;;5074933;28;20029;-62
2023/04/07 12:37:31;;;;;;;5.07;4.47;;;;;;;;;;5074848;28;20024;-62
2023/04/07 12:39:57;;;;;;;5.20;4.70;;;;;;;;;;5072108;28;20055;-62
2023/04/07 12:42:23;;;;;;;5.35;4.43;;;;;;;;;;5074715;28;20499;-63
2023/04/07 12:44:49;;;;;;;5.80;4.90;;;;;;;;;;5094563;28;20032;-63
2023/04/07 12:47:14;;;;;;;5.60;4.97;;;;;;;;;;5094843;28;20031;-63
2023/04/07 12:49:40;;;;;;;5.30;4.80;;;;;;;;;;5094970;28;20042;-64
2023/04/07 12:52:05;;;;;;;5.20;4.70;;;;;;;;;;5094561;28;20396;-63
2023/04/07 12:54:32;;;;;;;5.15;4.65;;;;;;;;;;5094783;28;20450;-64
2023/04/07 12:56:58;;;;;;;5.70;4.45;;;;;;;;;;5094624;28;20024;-64
2023/04/07 12:59:24;;;;;;;11.35;9.23;;;;;;;;;;5084453;28;20025;-63
2023/04/07 13:01:50;;;;;;;8.70;7.78;;;;;;;;;;5069690;28;20095;-63
2023/04/07 13:04:16;;;;;;;9.10;8.20;;;;;;;;;;5066205;28;20032;-63
2023/04/07 13:06:43;;;;;;;9.00;7.78;;;;;;;;;;5068396;28;20059;-63
2023/04/07 13:09:09;;;;;;;8.10;6.15;;;;;;;;;;5069714;28;20052;-63
2023/04/07 13:11:35;;;;;;;9.35;6.00;;;;;;;;;;5072249;28;20055;-63
2023/04/07 13:14:01;;;;;;;8.02;6.53;;;;;;;;;;5068234;28;20326;-62
2023/04/07 13:16:26;;;;;;;6.32;5.38;;;;;;;;;;5063227;28;20748;-63
2023/04/07 13:18:52;;;;;;;5.45;4.95;;;;;;;;;;5064587;28;20032;-62
2023/04/07 13:21:18;;;;;;;6.18;5.32;;;;;;;;;;5068198;28;20021;-63
2023/04/07 13:23:43;;;;;;;6.60;5.53;;;;;;;;;;5070928;28;20040;-63
2023/04/07 13:26:09;;;;;;;6.60;5.30;;;;;;;;;;5073233;28;20051;-63
2023/04/07 13:28:34;;;;;;;7.50;5.47;;;;;;;;;;5070657;28;20074;-63
2023/04/07 13:31:00;;;;;;;5.55;4.90;;;;;;;;;;5066373;28;20036;-62
2023/04/07 13:33:26;;;;;;;5.47;4.97;;;;;;;;;;5060566;28;20083;-62
2023/04/07 13:35:51;;;;;;;5.95;5.10;;;;;;;;;;5055834;28;20036;-64
2023/04/07 13:38:17;;;;;;;5.85;5.15;;;;;;;;;;5053860;28;20029;-64
2023/04/07 13:40:43;;;;;;;8.00;4.85;;;;;;;;;;5075286;28;20550;-63
2023/04/07 13:43:11;;;;;;;5.50;4.80;;;;;;;;;;5073354;28;20017;-64
2023/04/07 13:45:37;;;;;;;5.10;4.60;;;;;;;;;;5063102;28;20086;-63
2023/04/07 13:48:02;;;;;;;6.00;4.95;;;;;;;;;;5051444;28;20061;-63
2023/04/07 13:50:28;;;;;;;5.38;4.88;;;;;;;;;;5052044;28;20373;-63
2023/04/07 13:52:54;;;;;;;5.47;4.82;;;;;;;;;;5052578;28;20052;-64
2023/04/07 13:55:19;;;;;;;6.25;5.10;;;;;;;;;;5052322;28;20477;-64
2023/04/07 13:57:45;;;;;;;5.80;5.20;;;;;;;;;;5052591;28;20037;-64
2023/04/07 14:00:11;;;;;;;6.20;4.63;;;;;;;;;;5053528;28;20055;-63
2023/04/07 14:02:39;;;;;;;7.15;5.25;;;;;;;;;;5053478;28;20078;-63
2023/04/07 14:05:04;;;;;;;5.75;5.00;;;;;;;;;;5053381;28;20361;-62
2023/04/07 14:07:30;;;;;;;6.63;5.38;;;;;;;;;;5053369;28;20086;-62
2023/04/07 14:09:57;;;;;;;6.75;4.93;;;;;;;;;;5053269;28;20472;-63
2023/04/07 14:12:23;;;;;;;6.43;5.00;;;;;;;;;;5053030;28;20025;-63
2023/04/07 14:14:51;;;;;;;5.55;4.78;;;;;;;;;;5052958;28;20036;-62
2023/04/07 14:17:16;;;;;;;7.38;4.93;;;;;;;;;;5052807;28;20488;-62
2023/04/07 14:19:42;;;;;;;5.25;4.60;;;;;;;;;;5052705;28;20021;-63
2023/04/07 14:22:08;;;;;;;4.93;4.53;;;;;;;;;;5052865;28;20025;-62
2023/04/07 14:24:33;;;;;;;6.70;5.30;;;;;;;;;;5052778;28;20037;-63
2023/04/07 14:27:00;;;;;;;5.90;4.97;;;;;;;;;;5052710;28;20027;-63
2023/04/07 14:29:26;;;;;;;5.70;5.10;;;;;;;;;;5052962;28;20494;-63
2023/04/07 14:31:51;;;;;;;5.97;4.90;;;;;;;;;;5052509;28;20112;-62
2023/04/07 14:34:17;;;;;;;5.10;4.60;;;;;;;;;;5050945;28;20033;-62
2023/04/07 14:36:52;;;;;;;4.85;4.32;;;;;;;;;;5051401;28;20025;-62
2023/04/07 14:39:18;;;;;;;5.40;4.45;;;;;;;;;;5052463;28;20082;-62
2023/04/07 14:41:46;;;;;;;5.07;4.40;;;;;;;;;;5052736;28;20017;-62
2023/04/07 14:44:12;;;;;;;5.22;4.72;;;;;;;;;;5052756;28;20468;-63